sensor_id;sensor_type;location;lat;lon;timestamp;pressure;altitude;pressure_sealevel;temperature;humidity
66547;BME280;53400;50.364;14.874;2023-04-23T00:01:09;98064.50;;;11.70;70.90
66547;BME280;53400;50.364;14.874;2023-04-23T00:03:38;98066.38;;;11.70;71.13
66547;BME280;53400;50.364;14.874;2023-04-23T00:06:08;98055.91;;;11.74;70.62
66547;BME280;53400;50.364;14.874;2023-04-23T00:08:38;98051.34;;;11.64;70.92
66547;BME280;53400;50.364;14.874;2023-04-23T00:11:06;98046.50;;;11.71;70.92
66547;BME280;53400;50.364;14.874;2023-04-23T00:13:34;98041.91;;;11.56;71.08
66547;BME280;53400;50.364;14.874;2023-04-23T00:16:03;98043.84;;;11.66;71.12
66547;BME280;53400;50.364;14.874;2023-04-23T00:18:30;98046.22;;;11.62;71.31
66547;BME280;53400;50.364;14.874;2023-04-23T00:20:57;98028.22;;;11.42;72.22
66547;BME280;53400;50.364;14.874;2023-04-23T00:23:25;98037.06;;;11.33;72.44
66547;BME280;53400;50.364;14.874;2023-04-23T00:25:51;98031.41;;;11.34;72.51
66547;BME280;53400;50.364;14.874;2023-04-23T00:28:18;98033.31;;;11.44;71.60
66547;BME280;53400;50.364;14.874;2023-04-23T00:30:45;98026.06;;;11.29;72.46
66547;BME280;53400;50.364;14.874;2023-04-23T00:33:15;98029.53;;;11.30;72.64
66547;BME280;53400;50.364;14.874;2023-04-23T00:35:41;98021.75;;;11.23;72.81
66547;BME280;53400;50.364;14.874;2023-04-23T00:38:08;98016.34;;;11.13;73.06
66547;BME280;53400;50.364;14.874;2023-04-23T00:40:35;98012.63;;;11.14;72.64
66547;BME280;53400;50.364;14.874;2023-04-23T00:43:02;98017.94;;;11.09;72.71
66547;BME280;53400;50.364;14.874;2023-04-23T00:45:29;98024.63;;;11.06;73.05
66547;BME280;53400;50.364;14.874;2023-04-23T00:47:56;98015.78;;;11.00;73.36
66547;BME280;53400;50.364;14.874;2023-04-23T00:50:24;98019.53;;;11.05;72.69
66547;BME280;53400;50.364;14.874;2023-04-23T00:52:51;98018.66;;;10.89;73.56
66547;BME280;53400;50.364;14.874;2023-04-23T00:55:18;98025.06;;;10.83;74.00
66547;BME280;53400;50.364;14.874;2023-04-23T00:57:46;98020.06;;;11.01;73.06
66547;BME280;53400;50.364;14.874;2023-04-23T01:00:14;98029.94;;;10.91;73.67
66547;BME280;53400;50.364;14.874;2023-04-23T01:02:42;98023.78;;;10.90;73.25
66547;BME280;53400;50.364;14.874;2023-04-23T01:05:11;98023.19;;;10.83;73.24
66547;BME280;53400;50.364;14.874;2023-04-23T01:07:43;98023.72;;;10.80;73.89
66547;BME280;53400;50.364;14.874;2023-04-23T01:10:11;98016.72;;;10.69;74.11
66547;BME280;53400;50.364;14.874;2023-04-23T01:12:38;98018.84;;;10.67;74.53
66547;BME280;53400;50.364;14.874;2023-04-23T01:15:05;98020.41;;;10.57;74.37
66547;BME280;53400;50.364;14.874;2023-04-23T01:17:34;98021.50;;;10.67;74.38
66547;BME280;53400;50.364;14.874;2023-04-23T01:20:00;98010.16;;;10.44;75.05
66547;BME280;53400;50.364;14.874;2023-04-23T01:22:29;98010.19;;;10.54;74.75
66547;BME280;53400;50.364;14.874;2023-04-23T01:24:55;98017.34;;;10.44;74.61
66547;BME280;53400;50.364;14.874;2023-04-23T01:27:23;98015.78;;;10.48;74.95
66547;BME280;53400;50.364;14.874;2023-04-23T01:29:51;98010.88;;;10.34;75.37
66547;BME280;53400;50.364;14.874;2023-04-23T01:32:18;98006.22;;;10.25;76.11
66547;BME280;53400;50.364;14.874;2023-04-23T01:34:45;98008.06;;;10.19;76.29
66547;BME280;53400;50.364;14.874;2023-04-23T01:37:13;98005.16;;;10.21;76.55
66547;BME280;53400;50.364;14.874;2023-04-23T01:39:42;98006.50;;;10.23;76.48
66547;BME280;53400;50.364;14.874;2023-04-23T01:42:10;98004.94;;;9.90;78.13
66547;BME280;53400;50.364;14.874;2023-04-23T01:44:37;98002.50;;;9.88;78.30
66547;BME280;53400;50.364;14.874;2023-04-23T01:47:05;98003.16;;;9.74;78.78
66547;BME280;53400;50.364;14.874;2023-04-23T01:49:31;98006.41;;;9.76;79.68
66547;BME280;53400;50.364;14.874;2023-04-23T01:51:59;98008.84;;;9.82;79.20
66547;BME280;53400;50.364;14.874;2023-04-23T01:54:26;98002.97;;;9.80;79.46
66547;BME280;53400;50.364;14.874;2023-04-23T01:56:54;98005.66;;;9.80;79.52
66547;BME280;53400;50.364;14.874;2023-04-23T01:59:21;98009.97;;;9.86;79.10
66547;BME280;53400;50.364;14.874;2023-04-23T02:01:49;98004.53;;;9.76;78.96
66547;BME280;53400;50.364;14.874;2023-04-23T02:04:16;98003.66;;;9.65;79.79
66547;BME280;53400;50.364;14.874;2023-04-23T02:06:48;98001.28;;;9.69;80.16
66547;BME280;53400;50.364;14.874;2023-04-23T02:09:15;98004.97;;;9.63;80.60
66547;BME280;53400;50.364;14.874;2023-04-23T02:11:43;98003.16;;;9.69;79.45
66547;BME280;53400;50.364;14.874;2023-04-23T02:14:11;97992.91;;;9.60;80.56
66547;BME280;53400;50.364;14.874;2023-04-23T02:16:38;98000.97;;;9.65;80.12
66547;BME280;53400;50.364;14.874;2023-04-23T02:19:05;97996.47;;;9.71;79.33
66547;BME280;53400;50.364;14.874;2023-04-23T02:21:33;97999.09;;;9.66;80.06
66547;BME280;53400;50.364;14.874;2023-04-23T02:24:00;97998.13;;;9.77;78.88
66547;BME280;53400;50.364;14.874;2023-04-23T02:26:27;97995.75;;;9.81;78.83
66547;BME280;53400;50.364;14.874;2023-04-23T02:28:54;97994.09;;;9.75;79.35
66547;BME280;53400;50.364;14.874;2023-04-23T02:31:23;98002.34;;;9.68;79.55
66547;BME280;53400;50.364;14.874;2023-04-23T02:33:50;98004.81;;;9.75;78.71
66547;BME280;53400;50.364;14.874;2023-04-23T02:36:18;98000.50;;;9.74;79.25
66547;BME280;53400;50.364;14.874;2023-04-23T02:38:44;98000.47;;;9.69;78.95
66547;BME280;53400;50.364;14.874;2023-04-23T02:41:13;98002.53;;;9.61;78.92
66547;BME280;53400;50.364;14.874;2023-04-23T02:43:39;98008.19;;;9.65;79.49
66547;BME280;53400;50.364;14.874;2023-04-23T02:46:06;98002.53;;;9.61;78.94
66547;BME280;53400;50.364;14.874;2023-04-23T02:48:38;98003.53;;;9.55;79.34
66547;BME280;53400;50.364;14.874;2023-04-23T02:51:07;98004.56;;;9.49;79.71
66547;BME280;53400;50.364;14.874;2023-04-23T02:53:35;98004.69;;;9.64;79.51
66547;BME280;53400;50.364;14.874;2023-04-23T02:56:02;98003.34;;;9.62;79.19
66547;BME280;53400;50.364;14.874;2023-04-23T02:58:30;97997.69;;;9.58;79.11
66547;BME280;53400;50.364;14.874;2023-04-23T03:00:57;98000.72;;;9.67;79.01
66547;BME280;53400;50.364;14.874;2023-04-23T03:03:25;97997.50;;;9.65;79.20
66547;BME280;53400;50.364;14.874;2023-04-23T03:05:56;98003.66;;;9.65;79.04
66547;BME280;53400;50.364;14.874;2023-04-23T03:08:23;97995.97;;;9.74;78.62
66547;BME280;53400;50.364;14.874;2023-04-23T03:10:50;97995.78;;;9.54;78.94
66547;BME280;53400;50.364;14.874;2023-04-23T03:13:16;98005.16;;;9.56;79.24
66547;BME280;53400;50.364;14.874;2023-04-23T03:15:44;97999.25;;;9.54;79.01
66547;BME280;53400;50.364;14.874;2023-04-23T03:18:10;97994.22;;;9.58;79.63
66547;BME280;53400;50.364;14.874;2023-04-23T03:20:38;97995.53;;;9.55;78.78
66547;BME280;53400;50.364;14.874;2023-04-23T03:23:06;97997.75;;;9.63;78.61
66547;BME280;53400;50.364;14.874;2023-04-23T03:25:33;98002.28;;;9.63;78.62
66547;BME280;53400;50.364;14.874;2023-04-23T03:28:00;97995.16;;;9.74;77.89
66547;BME280;53400;50.364;14.874;2023-04-23T03:30:28;98004.22;;;9.73;78.26
66547;BME280;53400;50.364;14.874;2023-04-23T03:32:55;98004.81;;;9.80;77.67
66547;BME280;53400;50.364;14.874;2023-04-23T03:35:23;98006.69;;;9.79;78.45
66547;BME280;53400;50.364;14.874;2023-04-23T03:37:52;98003.13;;;10.01;77.07
66547;BME280;53400;50.364;14.874;2023-04-23T03:40:20;98005.88;;;10.11;77.59
66547;BME280;53400;50.364;14.874;2023-04-23T03:42:46;97999.50;;;10.17;78.16
66547;BME280;53400;50.364;14.874;2023-04-23T03:45:13;98016.88;;;10.15;77.32
66547;BME280;53400;50.364;14.874;2023-04-23T03:47:42;98012.75;;;10.29;76.39
66547;BME280;53400;50.364;14.874;2023-04-23T03:50:10;98015.31;;;10.56;75.38
66547;BME280;53400;50.364;14.874;2023-04-23T03:52:39;98003.69;;;10.35;76.47
66547;BME280;53400;50.364;14.874;2023-04-23T03:55:09;98009.94;;;10.19;76.62
66547;BME280;53400;50.364;14.874;2023-04-23T03:57:37;98013.50;;;9.92;77.91
66547;BME280;53400;50.364;14.874;2023-04-23T04:00:05;98017.91;;;10.08;77.21
66547;BME280;53400;50.364;14.874;2023-04-23T04:02:38;98006.97;;;10.47;75.31
66547;BME280;53400;50.364;14.874;2023-04-23T04:05:07;98011.59;;;10.62;76.22
66547;BME280;53400;50.364;14.874;2023-04-23T04:07:36;98011.47;;;10.42;76.82
66547;BME280;53400;50.364;14.874;2023-04-23T04:10:02;98010.75;;;10.19;76.82
66547;BME280;53400;50.364;14.874;2023-04-23T04:12:29;98016.84;;;10.09;77.02
66547;BME280;53400;50.364;14.874;2023-04-23T04:14:57;98012.28;;;10.10;76.88
66547;BME280;53400;50.364;14.874;2023-04-23T04:17:23;98003.94;;;10.01;77.08
66547;BME280;53400;50.364;14.874;2023-04-23T04:19:51;98007.56;;;9.85;77.50
66547;BME280;53400;50.364;14.874;2023-04-23T04:22:17;98005.91;;;9.79;78.38
66547;BME280;53400;50.364;14.874;2023-04-23T04:24:44;98005.34;;;9.77;78.70
66547;BME280;53400;50.364;14.874;2023-04-23T04:27:12;97987.03;;;9.63;79.45
66547;BME280;53400;50.364;14.874;2023-04-23T04:29:42;97986.16;;;9.53;80.07
66547;BME280;53400;50.364;14.874;2023-04-23T04:32:09;97988.34;;;9.56;79.78
66547;BME280;53400;50.364;14.874;2023-04-23T04:34:36;97986.03;;;9.70;80.61
66547;BME280;53400;50.364;14.874;2023-04-23T04:37:03;97984.06;;;9.60;80.85
66547;BME280;53400;50.364;14.874;2023-04-23T04:39:30;97994.78;;;9.60;81.96
66547;BME280;53400;50.364;14.874;2023-04-23T04:41:57;97984.44;;;9.69;80.79
66547;BME280;53400;50.364;14.874;2023-04-23T04:44:25;97984.78;;;9.77;80.69
66547;BME280;53400;50.364;14.874;2023-04-23T04:46:52;97986.19;;;9.90;81.24
66547;BME280;53400;50.364;14.874;2023-04-23T04:49:20;97982.78;;;10.00;80.79
66547;BME280;53400;50.364;14.874;2023-04-23T04:51:46;97978.75;;;9.92;81.39
66547;BME280;53400;50.364;14.874;2023-04-23T04:54:13;97978.13;;;9.85;81.07
66547;BME280;53400;50.364;14.874;2023-04-23T04:56:40;97970.41;;;9.88;81.88
66547;BME280;53400;50.364;14.874;2023-04-23T04:59:07;97971.91;;;10.11;81.47
66547;BME280;53400;50.364;14.874;2023-04-23T05:01:33;97981.22;;;10.41;80.10
66547;BME280;53400;50.364;14.874;2023-04-23T05:04:00;97978.31;;;10.48;79.09
66547;BME280;53400;50.364;14.874;2023-04-23T05:06:28;97978.88;;;10.55;79.85
66547;BME280;53400;50.364;14.874;2023-04-23T05:08:55;97974.84;;;10.47;79.40
66547;BME280;53400;50.364;14.874;2023-04-23T05:11:22;97983.59;;;10.38;80.97
66547;BME280;53400;50.364;14.874;2023-04-23T05:13:50;97990.91;;;10.52;81.16
66547;BME280;53400;50.364;14.874;2023-04-23T05:16:19;97998.22;;;10.67;79.08
66547;BME280;53400;50.364;14.874;2023-04-23T05:18:47;97991.69;;;10.48;79.97
66547;BME280;53400;50.364;14.874;2023-04-23T05:21:14;97989.88;;;10.59;78.50
66547;BME280;53400;50.364;14.874;2023-04-23T05:23:43;98002.41;;;10.48;79.36
66547;BME280;53400;50.364;14.874;2023-04-23T05:26:09;98003.00;;;10.60;78.56
66547;BME280;53400;50.364;14.874;2023-04-23T05:28:37;98009.50;;;10.79;78.88
66547;BME280;53400;50.364;14.874;2023-04-23T05:31:04;98007.25;;;11.14;77.90
66547;BME280;53400;50.364;14.874;2023-04-23T05:33:32;98027.69;;;11.35;76.94
66547;BME280;53400;50.364;14.874;2023-04-23T05:35:58;98030.16;;;11.57;75.61
66547;BME280;53400;50.364;14.874;2023-04-23T05:38:25;98029.41;;;11.87;75.87
66547;BME280;53400;50.364;14.874;2023-04-23T05:40:53;98025.06;;;11.71;76.15
66547;BME280;53400;50.364;14.874;2023-04-23T05:43:20;98032.88;;;11.98;78.61
66547;BME280;53400;50.364;14.874;2023-04-23T05:45:46;98033.16;;;12.07;77.88
66547;BME280;53400;50.364;14.874;2023-04-23T05:48:15;98019.94;;;11.54;76.42
66547;BME280;53400;50.364;14.874;2023-04-23T05:50:45;98013.19;;;11.31;79.05
66547;BME280;53400;50.364;14.874;2023-04-23T05:53:12;98015.78;;;11.11;81.21
66547;BME280;53400;50.364;14.874;2023-04-23T05:55:38;98021.38;;;10.94;82.48
66547;BME280;53400;50.364;14.874;2023-04-23T05:58:07;98020.13;;;11.22;84.48
66547;BME280;53400;50.364;14.874;2023-04-23T06:00:35;98025.81;;;11.46;82.85
66547;BME280;53400;50.364;14.874;2023-04-23T06:03:02;98016.91;;;11.25;84.89
66547;BME280;53400;50.364;14.874;2023-04-23T06:05:29;98023.94;;;11.41;85.09
66547;BME280;53400;50.364;14.874;2023-04-23T06:07:57;98021.47;;;11.14;86.74
66547;BME280;53400;50.364;14.874;2023-04-23T06:10:24;98027.72;;;11.56;86.51
66547;BME280;53400;50.364;14.874;2023-04-23T06:12:51;98025.66;;;12.09;82.77
66547;BME280;53400;50.364;14.874;2023-04-23T06:15:20;98028.06;;;12.36;81.41
66547;BME280;53400;50.364;14.874;2023-04-23T06:17:51;98035.56;;;12.19;85.23
66547;BME280;53400;50.364;14.874;2023-04-23T06:20:22;98035.00;;;12.52;79.21
66547;BME280;53400;50.364;14.874;2023-04-23T06:22:49;98026.38;;;12.60;77.25
66547;BME280;53400;50.364;14.874;2023-04-23T06:25:16;98032.34;;;12.42;76.35
66547;BME280;53400;50.364;14.874;2023-04-23T06:27:42;98027.97;;;12.67;75.97
66547;BME280;53400;50.364;14.874;2023-04-23T06:30:10;98029.06;;;12.60;77.41
66547;BME280;53400;50.364;14.874;2023-04-23T06:32:39;98034.16;;;12.72;76.39
66547;BME280;53400;50.364;14.874;2023-04-23T06:35:08;98029.59;;;12.73;75.77
66547;BME280;53400;50.364;14.874;2023-04-23T06:37:37;98033.03;;;12.89;74.05
66547;BME280;53400;50.364;14.874;2023-04-23T06:40:05;98026.84;;;12.78;75.09
66547;BME280;53400;50.364;14.874;2023-04-23T06:42:33;98028.78;;;12.72;75.13
66547;BME280;53400;50.364;14.874;2023-04-23T06:44:59;98026.53;;;13.00;72.81
66547;BME280;53400;50.364;14.874;2023-04-23T06:47:30;98025.81;;;12.74;75.77
66547;BME280;53400;50.364;14.874;2023-04-23T06:49:58;98014.06;;;12.54;74.66
66547;BME280;53400;50.364;14.874;2023-04-23T06:52:25;98010.06;;;12.21;75.04
66547;BME280;53400;50.364;14.874;2023-04-23T06:54:53;98018.84;;;12.62;73.64
66547;BME280;53400;50.364;14.874;2023-04-23T06:57:22;98004.41;;;12.43;75.43
66547;BME280;53400;50.364;14.874;2023-04-23T06:59:52;98011.31;;;12.70;75.41
66547;BME280;53400;50.364;14.874;2023-04-23T07:02:20;98016.16;;;12.68;76.54
66547;BME280;53400;50.364;14.874;2023-04-23T07:04:47;98006.09;;;12.99;76.14
66547;BME280;53400;50.364;14.874;2023-04-23T07:07:15;98012.44;;;13.23;74.20
66547;BME280;53400;50.364;14.874;2023-04-23T07:09:42;98012.81;;;13.01;74.38
66547;BME280;53400;50.364;14.874;2023-04-23T07:12:09;98017.06;;;13.13;73.32
66547;BME280;53400;50.364;14.874;2023-04-23T07:14:36;98005.47;;;13.17;73.13
66547;BME280;53400;50.364;14.874;2023-04-23T07:17:04;98006.56;;;13.11;74.80
66547;BME280;53400;50.364;14.874;2023-04-23T07:19:30;98019.03;;;13.51;72.32
66547;BME280;53400;50.364;14.874;2023-04-23T07:21:58;98014.50;;;13.42;72.97
66547;BME280;53400;50.364;14.874;2023-04-23T07:24:26;98013.34;;;13.58;72.68
66547;BME280;53400;50.364;14.874;2023-04-23T07:27:00;98014.19;;;13.53;72.78
66547;BME280;53400;50.364;14.874;2023-04-23T07:29:32;98012.19;;;13.69;72.51
66547;BME280;53400;50.364;14.874;2023-04-23T07:31:59;98012.16;;;13.74;72.87
66547;BME280;53400;50.364;14.874;2023-04-23T07:34:25;98011.53;;;13.88;72.26
66547;BME280;53400;50.364;14.874;2023-04-23T07:36:52;98018.75;;;13.92;72.01
66547;BME280;53400;50.364;14.874;2023-04-23T07:39:19;98006.91;;;13.54;73.47
66547;BME280;53400;50.364;14.874;2023-04-23T07:41:47;98017.56;;;13.25;76.05
66547;BME280;53400;50.364;14.874;2023-04-23T07:44:14;98010.31;;;13.70;73.66
66547;BME280;53400;50.364;14.874;2023-04-23T07:46:41;98018.19;;;13.56;73.99
66547;BME280;53400;50.364;14.874;2023-04-23T07:49:07;98015.97;;;13.68;74.65
66547;BME280;53400;50.364;14.874;2023-04-23T07:51:34;98006.50;;;14.10;72.62
66547;BME280;53400;50.364;14.874;2023-04-23T07:54:00;98014.41;;;13.96;75.12
66547;BME280;53400;50.364;14.874;2023-04-23T07:56:28;98012.13;;;14.14;73.17
66547;BME280;53400;50.364;14.874;2023-04-23T07:59:00;98016.94;;;14.17;73.88
66547;BME280;53400;50.364;14.874;2023-04-23T08:01:28;98023.91;;;14.18;72.64
66547;BME280;53400;50.364;14.874;2023-04-23T08:03:55;98024.00;;;13.79;73.20
66547;BME280;53400;50.364;14.874;2023-04-23T08:06:22;98023.69;;;14.14;71.30
66547;BME280;53400;50.364;14.874;2023-04-23T08:08:49;98017.34;;;14.00;72.23
66547;BME280;53400;50.364;14.874;2023-04-23T08:11:16;98023.03;;;14.28;73.34
66547;BME280;53400;50.364;14.874;2023-04-23T08:13:43;98017.38;;;13.95;73.76
66547;BME280;53400;50.364;14.874;2023-04-23T08:16:11;98023.50;;;14.35;73.87
66547;BME280;53400;50.364;14.874;2023-04-23T08:18:37;98016.00;;;14.61;73.01
66547;BME280;53400;50.364;14.874;2023-04-23T08:21:05;98025.75;;;14.28;72.25
66547;BME280;53400;50.364;14.874;2023-04-23T08:23:31;98016.59;;;14.58;72.57
66547;BME280;53400;50.364;14.874;2023-04-23T08:25:59;98030.56;;;14.31;73.08
66547;BME280;53400;50.364;14.874;2023-04-23T08:28:26;98024.63;;;14.29;74.34
66547;BME280;53400;50.364;14.874;2023-04-23T08:30:53;98031.72;;;14.78;72.66
66547;BME280;53400;50.364;14.874;2023-04-23T08:33:20;98028.38;;;14.33;74.43
66547;BME280;53400;50.364;14.874;2023-04-23T08:35:48;98044.84;;;14.60;73.66
66547;BME280;53400;50.364;14.874;2023-04-23T08:38:15;98042.78;;;14.52;72.71
66547;BME280;53400;50.364;14.874;2023-04-23T08:40:44;98040.00;;;14.57;73.69
66547;BME280;53400;50.364;14.874;2023-04-23T08:43:15;98041.19;;;14.75;71.65
66547;BME280;53400;50.364;14.874;2023-04-23T08:45:46;98039.09;;;14.91;71.06
66547;BME280;53400;50.364;14.874;2023-04-23T08:48:39;98042.91;;;14.90;72.34
66547;BME280;53400;50.364;14.874;2023-04-23T08:51:19;98039.00;;;15.01;72.74
66547;BME280;53400;50.364;14.874;2023-04-23T08:53:50;98048.72;;;15.21;73.06
66547;BME280;53400;50.364;14.874;2023-04-23T08:56:20;98044.22;;;15.17;71.51
66547;BME280;53400;50.364;14.874;2023-04-23T08:58:49;98039.38;;;14.95;74.28
66547;BME280;53400;50.364;14.874;2023-04-23T09:01:17;98046.00;;;14.78;74.14
66547;BME280;53400;50.364;14.874;2023-04-23T09:03:46;98043.78;;;15.09;73.91
66547;BME280;53400;50.364;14.874;2023-04-23T09:06:14;98048.91;;;15.06;72.72
66547;BME280;53400;50.364;14.874;2023-04-23T09:08:41;98051.69;;;15.44;72.42
66547;BME280;53400;50.364;14.874;2023-04-23T09:11:11;98058.69;;;15.64;72.06
66547;BME280;53400;50.364;14.874;2023-04-23T09:13:59;98056.22;;;15.05;75.44
66547;BME280;53400;50.364;14.874;2023-04-23T09:16:53;98068.47;;;15.59;76.68
66547;BME280;53400;50.364;14.874;2023-04-23T09:19:25;98053.81;;;15.66;77.81
66547;BME280;53400;50.364;14.874;2023-04-23T09:21:59;98049.16;;;15.90;75.75
66547;BME280;53400;50.364;14.874;2023-04-23T09:24:27;98055.50;;;15.99;76.28
66547;BME280;53400;50.364;14.874;2023-04-23T09:26:56;98057.16;;;16.14;74.87
66547;BME280;53400;50.364;14.874;2023-04-23T09:29:24;98052.53;;;16.34;73.82
66547;BME280;53400;50.364;14.874;2023-04-23T09:31:55;98050.91;;;16.65;73.33
66547;BME280;53400;50.364;14.874;2023-04-23T09:34:25;98042.72;;;16.84;72.36
66547;BME280;53400;50.364;14.874;2023-04-23T09:36:53;98050.44;;;17.18;70.60
66547;BME280;53400;50.364;14.874;2023-04-23T09:39:22;98044.53;;;17.16;70.37
66547;BME280;53400;50.364;14.874;2023-04-23T09:41:51;98043.84;;;17.11;70.11
66547;BME280;53400;50.364;14.874;2023-04-23T09:44:20;98047.44;;;17.06;72.03
66547;BME280;53400;50.364;14.874;2023-04-23T09:46:52;98044.63;;;16.97;72.33
66547;BME280;53400;50.364;14.874;2023-04-23T09:49:19;98051.13;;;16.83;72.56
66547;BME280;53400;50.364;14.874;2023-04-23T09:51:50;98049.75;;;16.99;69.54
66547;BME280;53400;50.364;14.874;2023-04-23T09:54:19;98043.50;;;16.71;72.91
66547;BME280;53400;50.364;14.874;2023-04-23T09:56:50;98047.69;;;16.63;76.30
66547;BME280;53400;50.364;14.874;2023-04-23T09:59:21;98043.78;;;16.56;74.93
66547;BME280;53400;50.364;14.874;2023-04-23T10:01:48;98041.44;;;15.83;74.47
66547;BME280;53400;50.364;14.874;2023-04-23T10:04:17;98050.88;;;15.86;75.06
66547;BME280;53400;50.364;14.874;2023-04-23T10:06:47;98041.38;;;15.89;74.55
66547;BME280;53400;50.364;14.874;2023-04-23T10:09:16;98044.38;;;15.68;76.09
66547;BME280;53400;50.364;14.874;2023-04-23T10:11:50;98046.75;;;15.70;77.20
66547;BME280;53400;50.364;14.874;2023-04-23T10:14:21;98051.94;;;15.85;77.47
66547;BME280;53400;50.364;14.874;2023-04-23T10:16:51;98047.38;;;15.86;76.74
66547;BME280;53400;50.364;14.874;2023-04-23T10:19:22;98043.31;;;16.02;75.61
66547;BME280;53400;50.364;14.874;2023-04-23T10:22:32;98042.34;;;16.12;74.39
66547;BME280;53400;50.364;14.874;2023-04-23T10:25:33;98039.75;;;15.88;76.75
66547;BME280;53400;50.364;14.874;2023-04-23T10:28:46;98037.25;;;15.91;76.55
66547;BME280;53400;50.364;14.874;2023-04-23T10:31:32;98031.72;;;15.64;76.01
66547;BME280;53400;50.364;14.874;2023-04-23T10:34:18;98044.78;;;15.75;75.14
66547;BME280;53400;50.364;14.874;2023-04-23T10:36:54;98043.19;;;15.55;76.21
66547;BME280;53400;50.364;14.874;2023-04-23T10:45:21;98046.75;;;15.70;77.03
66547;BME280;53400;50.364;14.874;2023-04-23T10:47:47;98052.09;;;15.75;77.32
66547;BME280;53400;50.364;14.874;2023-04-23T10:50:21;98052.19;;;15.89;78.92
66547;BME280;53400;50.364;14.874;2023-04-23T10:52:51;98053.59;;;15.62;79.59
66547;BME280;53400;50.364;14.874;2023-04-23T10:55:22;98050.84;;;15.67;81.89
66547;BME280;53400;50.364;14.874;2023-04-23T10:57:57;98055.97;;;15.69;81.69
66547;BME280;53400;50.364;14.874;2023-04-23T11:00:25;98063.88;;;15.60;80.25
66547;BME280;53400;50.364;14.874;2023-04-23T11:02:51;98055.91;;;15.74;79.91
66547;BME280;53400;50.364;14.874;2023-04-23T11:05:21;98054.53;;;15.76;82.84
66547;BME280;53400;50.364;14.874;2023-04-23T11:08:01;98054.38;;;15.68;81.62
66547;BME280;53400;50.364;14.874;2023-04-23T11:10:30;98062.16;;;15.69;81.03
66547;BME280;53400;50.364;14.874;2023-04-23T11:12:56;98053.31;;;16.01;81.91
66547;BME280;53400;50.364;14.874;2023-04-23T11:15:22;98050.09;;;15.99;82.03
66547;BME280;53400;50.364;14.874;2023-04-23T11:17:59;98058.72;;;16.01;79.54
66547;BME280;53400;50.364;14.874;2023-04-23T11:20:29;98054.06;;;15.88;82.22
66547;BME280;53400;50.364;14.874;2023-04-23T11:22:55;98048.44;;;15.85;82.23
66547;BME280;53400;50.364;14.874;2023-04-23T11:25:23;98046.84;;;15.83;80.49
66547;BME280;53400;50.364;14.874;2023-04-23T11:27:51;98053.81;;;15.47;81.52
66547;BME280;53400;50.364;14.874;2023-04-23T11:30:20;98049.00;;;15.63;83.35
66547;BME280;53400;50.364;14.874;2023-04-23T11:32:49;98042.19;;;15.70;82.57
66547;BME280;53400;50.364;14.874;2023-04-23T11:35:18;98046.69;;;15.94;82.83
66547;BME280;53400;50.364;14.874;2023-04-23T11:37:46;98041.59;;;15.73;81.77
66547;BME280;53400;50.364;14.874;2023-04-23T11:40:17;98045.16;;;15.69;83.14
66547;BME280;53400;50.364;14.874;2023-04-23T11:42:53;98046.81;;;15.65;81.93
66547;BME280;53400;50.364;14.874;2023-04-23T11:48:02;98035.97;;;15.89;82.06
66547;BME280;53400;50.364;14.874;2023-04-23T11:50:31;98033.47;;;15.54;80.34
66547;BME280;53400;50.364;14.874;2023-04-23T11:53:04;98028.22;;;15.63;82.80
66547;BME280;53400;50.364;14.874;2023-04-23T11:55:35;98032.53;;;15.83;79.15
66547;BME280;53400;50.364;14.874;2023-04-23T11:58:11;98027.03;;;15.88;78.34
66547;BME280;53400;50.364;14.874;2023-04-23T12:00:45;98029.25;;;15.67;80.30
66547;BME280;53400;50.364;14.874;2023-04-23T12:03:11;98034.66;;;15.67;81.26
66547;BME280;53400;50.364;14.874;2023-04-23T12:05:43;98019.75;;;15.32;80.06
66547;BME280;53400;50.364;14.874;2023-04-23T12:08:11;98032.31;;;15.18;81.19
66547;BME280;53400;50.364;14.874;2023-04-23T12:10:51;98035.56;;;15.57;81.64
66547;BME280;53400;50.364;14.874;2023-04-23T12:13:20;98027.69;;;15.99;82.28
66547;BME280;53400;50.364;14.874;2023-04-23T12:15:48;98020.16;;;16.15;79.59
66547;BME280;53400;50.364;14.874;2023-04-23T12:18:14;98024.72;;;15.63;80.66
66547;BME280;53400;50.364;14.874;2023-04-23T12:20:43;98016.00;;;16.03;80.25
66547;BME280;53400;50.364;14.874;2023-04-23T12:23:09;98023.19;;;15.75;81.66
66547;BME280;53400;50.364;14.874;2023-04-23T12:25:35;98030.81;;;16.06;82.10
66547;BME280;53400;50.364;14.874;2023-04-23T12:28:02;98033.66;;;16.15;80.54
66547;BME280;53400;50.364;14.874;2023-04-23T12:30:33;98030.94;;;16.01;79.01
66547;BME280;53400;50.364;14.874;2023-04-23T12:32:59;98043.78;;;15.90;81.23
66547;BME280;53400;50.364;14.874;2023-04-23T12:35:37;98042.56;;;15.82;81.73
66547;BME280;53400;50.364;14.874;2023-04-23T12:38:05;98039.53;;;15.84;77.96
66547;BME280;53400;50.364;14.874;2023-04-23T12:40:32;98045.53;;;15.81;80.52
66547;BME280;53400;50.364;14.874;2023-04-23T12:42:58;98055.25;;;15.58;81.66
66547;BME280;53400;50.364;14.874;2023-04-23T12:45:24;98059.44;;;15.50;81.75
66547;BME280;53400;50.364;14.874;2023-04-23T12:47:50;98060.31;;;15.65;81.56
66547;BME280;53400;50.364;14.874;2023-04-23T12:50:16;98062.19;;;15.45;80.51
66547;BME280;53400;50.364;14.874;2023-04-23T12:52:42;98055.44;;;15.24;80.71
66547;BME280;53400;50.364;14.874;2023-04-23T12:55:10;98058.03;;;15.34;82.04
66547;BME280;53400;50.364;14.874;2023-04-23T12:57:36;98056.78;;;15.45;82.93
66547;BME280;53400;50.364;14.874;2023-04-23T13:00:02;98054.69;;;15.18;83.34
66547;BME280;53400;50.364;14.874;2023-04-23T13:02:29;98050.75;;;15.10;81.95
66547;BME280;53400;50.364;14.874;2023-04-23T13:04:56;98054.78;;;15.13;83.37
66547;BME280;53400;50.364;14.874;2023-04-23T13:07:25;98053.72;;;15.09;84.49
66547;BME280;53400;50.364;14.874;2023-04-23T13:09:51;98051.22;;;15.18;85.12